KIWD

Gogebic-Iron County Airport

Ironwood, Michigan, USA
METAR KIWD 212156Z AUTO 36008KT 10SM CLR 21/11 A2995 RMK AO2 SLP142 T02060111 PNO $
Observed Flight Rules
Jun-21 @ 21:56 UTC (9 minutes ago) Visual Flight Rules
Wind Visibility Clouds
360° at 8 knots 10 miles
  • Clear skies
Temperatures Readings
Current 21°C / 70°F
Dewpoint 11°C / 52°F
Humidity 53%
Altimeter 29.95" Hg
Pressure 1014.2 hPa
Elevation 375
METAR KIWD 212156Z AUTO 36008KT 10SM CLR 21/11 A2995 RMK AO2 SLP142 T02060111 PNO $
Observed Flight Rules
Jun-21 @ 21:56 UTC
(9 minutes ago)
VFR
Wind Visibility
360° at 8 knots 10 miles
Clouds
  • Clear skies
Temperature Dewpoint
21°C / 70°F 11°C / 52°F
Humidity Altimeter Pressure
53% 29.95" Hg 1014.2 hPa